sensor_id;sensor_type;location;lat;lon;timestamp;temperature;humidity
5870;DHT22;2961;47.702;9.410;2023-05-16T00:01:05;11.00;99.90
5870;DHT22;2961;47.702;9.410;2023-05-16T00:03:34;11.00;99.90
5870;DHT22;2961;47.702;9.410;2023-05-16T00:06:01;10.90;99.90
5870;DHT22;2961;47.702;9.410;2023-05-16T00:08:28;10.90;99.90
5870;DHT22;2961;47.702;9.410;2023-05-16T00:10:54;10.90;99.90
5870;DHT22;2961;47.702;9.410;2023-05-16T00:13:21;10.90;99.90
5870;DHT22;2961;47.702;9.410;2023-05-16T00:15:49;10.80;99.90
5870;DHT22;2961;47.702;9.410;2023-05-16T00:18:16;10.80;99.90
5870;DHT22;2961;47.702;9.410;2023-05-16T00:20:45;10.90;99.90
5870;DHT22;2961;47.702;9.410;2023-05-16T00:23:11;10.90;99.90
5870;DHT22;2961;47.702;9.410;2023-05-16T00:25:38;11.00;99.90
5870;DHT22;2961;47.702;9.410;2023-05-16T00:28:05;11.10;99.90
5870;DHT22;2961;47.702;9.410;2023-05-16T00:30:32;11.20;99.90
5870;DHT22;2961;47.702;9.410;2023-05-16T00:32:59;11.20;99.90
5870;DHT22;2961;47.702;9.410;2023-05-16T00:35:26;11.20;99.90
5870;DHT22;2961;47.702;9.410;2023-05-16T00:37:55;11.20;99.90
5870;DHT22;2961;47.702;9.410;2023-05-16T00:40:21;11.20;99.90
5870;DHT22;2961;47.702;9.410;2023-05-16T00:42:48;11.20;99.90
5870;DHT22;2961;47.702;9.410;2023-05-16T00:45:15;11.10;99.90
5870;DHT22;2961;47.702;9.410;2023-05-16T00:47:42;11.00;99.90
5870;DHT22;2961;47.702;9.410;2023-05-16T00:50:09;11.00;99.90
5870;DHT22;2961;47.702;9.410;2023-05-16T00:52:36;11.00;99.90
5870;DHT22;2961;47.702;9.410;2023-05-16T00:55:05;10.90;99.90
5870;DHT22;2961;47.702;9.410;2023-05-16T00:57:35;10.90;99.90
5870;DHT22;2961;47.702;9.410;2023-05-16T01:00:02;11.00;99.90
5870;DHT22;2961;47.702;9.410;2023-05-16T01:02:30;11.00;99.90
5870;DHT22;2961;47.702;9.410;2023-05-16T01:04:57;10.90;99.90
5870;DHT22;2961;47.702;9.410;2023-05-16T01:07:24;10.90;99.90
5870;DHT22;2961;47.702;9.410;2023-05-16T01:09:51;10.90;99.90
5870;DHT22;2961;47.702;9.410;2023-05-16T01:12:39;11.00;99.90
5870;DHT22;2961;47.702;9.410;2023-05-16T01:15:08;11.00;99.90
5870;DHT22;2961;47.702;9.410;2023-05-16T01:17:48;10.90;99.90
5870;DHT22;2961;47.702;9.410;2023-05-16T01:20:24;11.00;99.90
5870;DHT22;2961;47.702;9.410;2023-05-16T01:23:04;11.00;99.90
5870;DHT22;2961;47.702;9.410;2023-05-16T01:25:42;11.00;99.90
5870;DHT22;2961;47.702;9.410;2023-05-16T01:28:15;10.90;99.90
5870;DHT22;2961;47.702;9.410;2023-05-16T01:30:42;10.80;99.90
5870;DHT22;2961;47.702;9.410;2023-05-16T01:33:10;10.90;99.90
5870;DHT22;2961;47.702;9.410;2023-05-16T01:35:40;10.80;99.90
5870;DHT22;2961;47.702;9.410;2023-05-16T01:38:12;10.80;99.90
5870;DHT22;2961;47.702;9.410;2023-05-16T01:40:47;10.80;99.90
5870;DHT22;2961;47.702;9.410;2023-05-16T01:43:28;10.80;99.90
5870;DHT22;2961;47.702;9.410;2023-05-16T01:46:01;10.80;99.90
5870;DHT22;2961;47.702;9.410;2023-05-16T01:48:42;10.80;99.90
5870;DHT22;2961;47.702;9.410;2023-05-16T01:51:12;10.80;99.90
5870;DHT22;2961;47.702;9.410;2023-05-16T01:53:39;10.80;99.90
5870;DHT22;2961;47.702;9.410;2023-05-16T01:56:10;10.80;99.90
5870;DHT22;2961;47.702;9.410;2023-05-16T01:58:43;10.80;99.90
5870;DHT22;2961;47.702;9.410;2023-05-16T02:01:12;10.80;99.90
5870;DHT22;2961;47.702;9.410;2023-05-16T02:03:39;10.70;99.90
5870;DHT22;2961;47.702;9.410;2023-05-16T02:06:06;10.80;99.90
5870;DHT22;2961;47.702;9.410;2023-05-16T02:08:33;10.70;99.90
5870;DHT22;2961;47.702;9.410;2023-05-16T02:10:59;10.70;99.90
5870;DHT22;2961;47.702;9.410;2023-05-16T02:13:26;10.70;99.90
5870;DHT22;2961;47.702;9.410;2023-05-16T02:15:54;10.70;99.90
5870;DHT22;2961;47.702;9.410;2023-05-16T02:18:21;10.70;99.90
5870;DHT22;2961;47.702;9.410;2023-05-16T02:20:48;10.70;99.90
5870;DHT22;2961;47.702;9.410;2023-05-16T02:23:15;10.70;99.90
5870;DHT22;2961;47.702;9.410;2023-05-16T02:25:41;10.60;99.90
5870;DHT22;2961;47.702;9.410;2023-05-16T02:28:08;10.60;99.90
5870;DHT22;2961;47.702;9.410;2023-05-16T02:30:35;10.50;99.90
5870;DHT22;2961;47.702;9.410;2023-05-16T02:33:03;10.40;99.90
5870;DHT22;2961;47.702;9.410;2023-05-16T02:35:30;10.40;99.90
5870;DHT22;2961;47.702;9.410;2023-05-16T02:37:57;10.40;99.90
5870;DHT22;2961;47.702;9.410;2023-05-16T02:40:24;10.40;99.90
5870;DHT22;2961;47.702;9.410;2023-05-16T02:42:50;10.20;99.90
5870;DHT22;2961;47.702;9.410;2023-05-16T02:45:17;10.10;99.90
5870;DHT22;2961;47.702;9.410;2023-05-16T02:47:44;10.00;99.90
5870;DHT22;2961;47.702;9.410;2023-05-16T02:50:12;9.90;99.90
5870;DHT22;2961;47.702;9.410;2023-05-16T02:52:39;9.90;99.90
5870;DHT22;2961;47.702;9.410;2023-05-16T02:55:06;9.90;99.90
5870;DHT22;2961;47.702;9.410;2023-05-16T02:57:33;9.90;99.90
5870;DHT22;2961;47.702;9.410;2023-05-16T03:00:00;10.00;99.90
5870;DHT22;2961;47.702;9.410;2023-05-16T03:02:26;10.10;99.90
5870;DHT22;2961;47.702;9.410;2023-05-16T03:04:53;10.10;99.90
5870;DHT22;2961;47.702;9.410;2023-05-16T03:07:21;10.10;99.90
5870;DHT22;2961;47.702;9.410;2023-05-16T03:09:48;10.10;99.90
5870;DHT22;2961;47.702;9.410;2023-05-16T03:12:15;10.10;99.90
5870;DHT22;2961;47.702;9.410;2023-05-16T03:14:42;10.10;99.90
5870;DHT22;2961;47.702;9.410;2023-05-16T03:17:09;10.00;99.90
5870;DHT22;2961;47.702;9.410;2023-05-16T03:19:36;10.00;99.90
5870;DHT22;2961;47.702;9.410;2023-05-16T03:22:03;10.00;99.90
5870;DHT22;2961;47.702;9.410;2023-05-16T03:24:31;10.00;99.90
5870;DHT22;2961;47.702;9.410;2023-05-16T03:26:58;10.00;99.90
5870;DHT22;2961;47.702;9.410;2023-05-16T03:29:25;10.00;99.90
5870;DHT22;2961;47.702;9.410;2023-05-16T03:31:52;10.00;99.90
5870;DHT22;2961;47.702;9.410;2023-05-16T03:34:19;10.00;99.90
5870;DHT22;2961;47.702;9.410;2023-05-16T03:36:47;9.90;99.90
5870;DHT22;2961;47.702;9.410;2023-05-16T03:39:14;9.90;99.90
5870;DHT22;2961;47.702;9.410;2023-05-16T03:41:42;9.90;99.90
5870;DHT22;2961;47.702;9.410;2023-05-16T03:44:09;9.90;99.90
5870;DHT22;2961;47.702;9.410;2023-05-16T03:46:36;9.90;99.90
5870;DHT22;2961;47.702;9.410;2023-05-16T03:49:03;9.80;99.90
5870;DHT22;2961;47.702;9.410;2023-05-16T03:51:30;9.70;99.90
5870;DHT22;2961;47.702;9.410;2023-05-16T03:53:57;9.70;99.90
5870;DHT22;2961;47.702;9.410;2023-05-16T03:56:24;9.50;99.90
5870;DHT22;2961;47.702;9.410;2023-05-16T03:58:52;9.40;99.90
5870;DHT22;2961;47.702;9.410;2023-05-16T04:01:19;9.40;99.90
5870;DHT22;2961;47.702;9.410;2023-05-16T04:03:46;9.30;99.90
5870;DHT22;2961;47.702;9.410;2023-05-16T04:06:12;9.30;99.90
5870;DHT22;2961;47.702;9.410;2023-05-16T04:08:39;9.30;99.90
5870;DHT22;2961;47.702;9.410;2023-05-16T04:11:09;9.20;99.90
5870;DHT22;2961;47.702;9.410;2023-05-16T04:13:36;9.20;99.90
5870;DHT22;2961;47.702;9.410;2023-05-16T04:16:05;9.10;99.90
5870;DHT22;2961;47.702;9.410;2023-05-16T04:18:32;9.10;99.90
5870;DHT22;2961;47.702;9.410;2023-05-16T04:20:58;9.10;99.90
5870;DHT22;2961;47.702;9.410;2023-05-16T04:23:25;9.10;99.90
5870;DHT22;2961;47.702;9.410;2023-05-16T04:25:52;9.10;99.90
5870;DHT22;2961;47.702;9.410;2023-05-16T04:28:21;9.00;99.90
5870;DHT22;2961;47.702;9.410;2023-05-16T04:30:48;9.00;99.90
5870;DHT22;2961;47.702;9.410;2023-05-16T04:33:17;8.90;99.90
5870;DHT22;2961;47.702;9.410;2023-05-16T04:35:44;8.80;99.90
5870;DHT22;2961;47.702;9.410;2023-05-16T04:38:10;8.80;99.90
5870;DHT22;2961;47.702;9.410;2023-05-16T04:40:37;8.70;99.90
5870;DHT22;2961;47.702;9.410;2023-05-16T04:43:04;8.70;99.90
5870;DHT22;2961;47.702;9.410;2023-05-16T04:45:31;8.80;99.90
5870;DHT22;2961;47.702;9.410;2023-05-16T04:47:59;8.70;99.90
5870;DHT22;2961;47.702;9.410;2023-05-16T04:50:27;8.70;99.90
5870;DHT22;2961;47.702;9.410;2023-05-16T04:52:54;8.70;99.90
5870;DHT22;2961;47.702;9.410;2023-05-16T04:55:21;8.80;99.90
5870;DHT22;2961;47.702;9.410;2023-05-16T04:57:48;8.80;99.90
5870;DHT22;2961;47.702;9.410;2023-05-16T05:00:16;8.80;99.90
5870;DHT22;2961;47.702;9.410;2023-05-16T05:02:43;8.80;99.90
5870;DHT22;2961;47.702;9.410;2023-05-16T05:05:10;8.90;99.90
5870;DHT22;2961;47.702;9.410;2023-05-16T05:07:38;9.00;99.90
5870;DHT22;2961;47.702;9.410;2023-05-16T05:10:05;9.10;99.90
5870;DHT22;2961;47.702;9.410;2023-05-16T05:12:33;9.20;99.90
5870;DHT22;2961;47.702;9.410;2023-05-16T05:15:00;9.30;99.90
5870;DHT22;2961;47.702;9.410;2023-05-16T05:17:27;9.40;99.90
5870;DHT22;2961;47.702;9.410;2023-05-16T05:19:54;9.50;99.90
5870;DHT22;2961;47.702;9.410;2023-05-16T05:22:20;9.70;99.90
5870;DHT22;2961;47.702;9.410;2023-05-16T05:24:49;9.90;99.90
5870;DHT22;2961;47.702;9.410;2023-05-16T05:27:16;10.00;99.90
5870;DHT22;2961;47.702;9.410;2023-05-16T05:29:43;10.10;99.90
5870;DHT22;2961;47.702;9.410;2023-05-16T05:32:09;10.10;99.90
5870;DHT22;2961;47.702;9.410;2023-05-16T05:34:36;10.20;99.90
5870;DHT22;2961;47.702;9.410;2023-05-16T05:37:03;10.40;99.90
5870;DHT22;2961;47.702;9.410;2023-05-16T05:39:30;10.50;99.90
5870;DHT22;2961;47.702;9.410;2023-05-16T05:41:58;10.70;99.90
5870;DHT22;2961;47.702;9.410;2023-05-16T05:44:25;10.90;99.90
5870;DHT22;2961;47.702;9.410;2023-05-16T05:46:52;11.20;99.90
5870;DHT22;2961;47.702;9.410;2023-05-16T05:49:19;11.40;99.90
5870;DHT22;2961;47.702;9.410;2023-05-16T05:51:46;11.60;99.90
5870;DHT22;2961;47.702;9.410;2023-05-16T05:54:16;11.90;99.90
5870;DHT22;2961;47.702;9.410;2023-05-16T05:56:43;12.00;99.90
5870;DHT22;2961;47.702;9.410;2023-05-16T05:59:11;12.30;99.90
5870;DHT22;2961;47.702;9.410;2023-05-16T06:01:38;12.40;99.90
5870;DHT22;2961;47.702;9.410;2023-05-16T06:04:22;12.40;99.90
5870;DHT22;2961;47.702;9.410;2023-05-16T06:06:49;12.40;99.90
5870;DHT22;2961;47.702;9.410;2023-05-16T06:09:16;12.70;99.90
5870;DHT22;2961;47.702;9.410;2023-05-16T06:11:43;12.80;99.90
5870;DHT22;2961;47.702;9.410;2023-05-16T06:14:12;12.90;99.90
5870;DHT22;2961;47.702;9.410;2023-05-16T06:16:39;13.00;99.90
5870;DHT22;2961;47.702;9.410;2023-05-16T06:19:06;13.20;99.90
5870;DHT22;2961;47.702;9.410;2023-05-16T06:21:33;13.50;99.90
5870;DHT22;2961;47.702;9.410;2023-05-16T06:24:00;13.80;99.90
5870;DHT22;2961;47.702;9.410;2023-05-16T06:26:27;14.70;99.90
5870;DHT22;2961;47.702;9.410;2023-05-16T06:28:54;15.80;99.90
5870;DHT22;2961;47.702;9.410;2023-05-16T06:31:22;17.00;99.90
5870;DHT22;2961;47.702;9.410;2023-05-16T06:33:49;18.20;99.90
5870;DHT22;2961;47.702;9.410;2023-05-16T06:36:16;19.20;99.90
5870;DHT22;2961;47.702;9.410;2023-05-16T06:38:42;19.80;99.90
5870;DHT22;2961;47.702;9.410;2023-05-16T06:41:09;20.60;99.90
5870;DHT22;2961;47.702;9.410;2023-05-16T06:43:36;21.10;99.90
5870;DHT22;2961;47.702;9.410;2023-05-16T06:46:03;21.30;96.90
5870;DHT22;2961;47.702;9.410;2023-05-16T06:48:31;21.20;97.60
5870;DHT22;2961;47.702;9.410;2023-05-16T06:50:58;21.20;96.20
5870;DHT22;2961;47.702;9.410;2023-05-16T06:53:25;21.00;95.40
5870;DHT22;2961;47.702;9.410;2023-05-16T06:55:52;20.00;95.40
5870;DHT22;2961;47.702;9.410;2023-05-16T06:58:19;18.80;98.10
5870;DHT22;2961;47.702;9.410;2023-05-16T07:00:48;18.30;99.90
5870;DHT22;2961;47.702;9.410;2023-05-16T07:03:15;18.00;99.90
5870;DHT22;2961;47.702;9.410;2023-05-16T07:05:44;17.90;99.90
5870;DHT22;2961;47.702;9.410;2023-05-16T07:08:10;17.80;99.90
5870;DHT22;2961;47.702;9.410;2023-05-16T07:10:37;17.80;99.90
5870;DHT22;2961;47.702;9.410;2023-05-16T07:13:05;17.80;99.90
5870;DHT22;2961;47.702;9.410;2023-05-16T07:15:32;17.70;99.90
5870;DHT22;2961;47.702;9.410;2023-05-16T07:17:59;17.40;99.90
5870;DHT22;2961;47.702;9.410;2023-05-16T07:20:26;16.90;99.90
5870;DHT22;2961;47.702;9.410;2023-05-16T07:22:54;16.50;99.90
5870;DHT22;2961;47.702;9.410;2023-05-16T07:25:22;16.10;99.90
5870;DHT22;2961;47.702;9.410;2023-05-16T07:27:48;15.90;99.90
5870;DHT22;2961;47.702;9.410;2023-05-16T07:30:15;15.70;99.90
5870;DHT22;2961;47.702;9.410;2023-05-16T07:32:42;15.40;99.90
5870;DHT22;2961;47.702;9.410;2023-05-16T07:35:09;15.20;99.90
5870;DHT22;2961;47.702;9.410;2023-05-16T07:37:37;15.00;99.90
5870;DHT22;2961;47.702;9.410;2023-05-16T07:40:08;14.90;99.90
5870;DHT22;2961;47.702;9.410;2023-05-16T07:42:35;14.80;99.90
5870;DHT22;2961;47.702;9.410;2023-05-16T07:45:03;14.70;99.90
5870;DHT22;2961;47.702;9.410;2023-05-16T07:47:30;14.50;99.90
5870;DHT22;2961;47.702;9.410;2023-05-16T07:49:56;14.50;99.90
5870;DHT22;2961;47.702;9.410;2023-05-16T07:52:23;14.50;99.90
5870;DHT22;2961;47.702;9.410;2023-05-16T07:54:50;14.50;99.90
5870;DHT22;2961;47.702;9.410;2023-05-16T07:57:18;14.50;99.90
5870;DHT22;2961;47.702;9.410;2023-05-16T07:59:45;14.60;99.90
5870;DHT22;2961;47.702;9.410;2023-05-16T08:02:12;14.70;99.90
5870;DHT22;2961;47.702;9.410;2023-05-16T08:04:39;15.00;99.90
5870;DHT22;2961;47.702;9.410;2023-05-16T08:07:05;15.20;99.90
5870;DHT22;2961;47.702;9.410;2023-05-16T08:09:32;15.50;99.90
5870;DHT22;2961;47.702;9.410;2023-05-16T08:11:59;15.70;99.90
5870;DHT22;2961;47.702;9.410;2023-05-16T08:14:29;15.90;99.90
5870;DHT22;2961;47.702;9.410;2023-05-16T08:16:57;15.80;99.90
5870;DHT22;2961;47.702;9.410;2023-05-16T08:19:24;15.70;99.90
5870;DHT22;2961;47.702;9.410;2023-05-16T08:21:51;15.60;99.90
5870;DHT22;2961;47.702;9.410;2023-05-16T08:24:18;15.60;99.90
5870;DHT22;2961;47.702;9.410;2023-05-16T08:26:45;15.90;99.90
5870;DHT22;2961;47.702;9.410;2023-05-16T08:29:11;16.20;99.90
5870;DHT22;2961;47.702;9.410;2023-05-16T08:31:40;16.50;99.90
5870;DHT22;2961;47.702;9.410;2023-05-16T08:34:07;16.80;99.90
5870;DHT22;2961;47.702;9.410;2023-05-16T08:36:34;16.80;99.90
5870;DHT22;2961;47.702;9.410;2023-05-16T08:39:02;16.50;99.90
5870;DHT22;2961;47.702;9.410;2023-05-16T08:41:29;16.10;99.90
5870;DHT22;2961;47.702;9.410;2023-05-16T08:43:56;15.90;99.90
5870;DHT22;2961;47.702;9.410;2023-05-16T08:46:23;15.80;99.90
5870;DHT22;2961;47.702;9.410;2023-05-16T08:48:53;15.70;99.90
5870;DHT22;2961;47.702;9.410;2023-05-16T08:51:20;15.40;99.90
5870;DHT22;2961;47.702;9.410;2023-05-16T08:53:52;15.30;99.90
5870;DHT22;2961;47.702;9.410;2023-05-16T08:56:20;15.20;99.90
5870;DHT22;2961;47.702;9.410;2023-05-16T08:58:48;15.20;99.90
5870;DHT22;2961;47.702;9.410;2023-05-16T09:01:16;15.20;99.90
5870;DHT22;2961;47.702;9.410;2023-05-16T09:03:45;15.50;99.90
5870;DHT22;2961;47.702;9.410;2023-05-16T09:06:14;15.60;99.90
5870;DHT22;2961;47.702;9.410;2023-05-16T09:08:41;15.90;99.90
5870;DHT22;2961;47.702;9.410;2023-05-16T09:11:08;15.90;99.90
5870;DHT22;2961;47.702;9.410;2023-05-16T09:13:36;16.00;99.90
5870;DHT22;2961;47.702;9.410;2023-05-16T09:16:10;16.40;99.90
5870;DHT22;2961;47.702;9.410;2023-05-16T09:18:38;17.10;99.90
5870;DHT22;2961;47.702;9.410;2023-05-16T09:21:05;17.60;99.90
5870;DHT22;2961;47.702;9.410;2023-05-16T09:23:34;17.80;99.90
5870;DHT22;2961;47.702;9.410;2023-05-16T09:26:01;17.60;99.90
5870;DHT22;2961;47.702;9.410;2023-05-16T09:28:29;17.20;99.90
5870;DHT22;2961;47.702;9.410;2023-05-16T09:30:56;16.90;99.90
5870;DHT22;2961;47.702;9.410;2023-05-16T09:33:26;16.70;99.90
5870;DHT22;2961;47.702;9.410;2023-05-16T09:35:54;16.80;99.90
5870;DHT22;2961;47.702;9.410;2023-05-16T09:38:21;16.70;99.90
5870;DHT22;2961;47.702;9.410;2023-05-16T09:40:51;16.70;99.90
5870;DHT22;2961;47.702;9.410;2023-05-16T09:43:21;16.40;99.90
5870;DHT22;2961;47.702;9.410;2023-05-16T09:45:48;15.80;99.90
5870;DHT22;2961;47.702;9.410;2023-05-16T09:48:16;15.50;99.90
5870;DHT22;2961;47.702;9.410;2023-05-16T09:50:47;15.30;99.90
5870;DHT22;2961;47.702;9.410;2023-05-16T09:53:15;15.30;99.90
5870;DHT22;2961;47.702;9.410;2023-05-16T09:55:42;15.30;99.90
5870;DHT22;2961;47.702;9.410;2023-05-16T09:58:10;15.40;99.90
5870;DHT22;2961;47.702;9.410;2023-05-16T10:00:38;15.40;99.90
5870;DHT22;2961;47.702;9.410;2023-05-16T10:03:07;15.20;99.90
5870;DHT22;2961;47.702;9.410;2023-05-16T10:05:34;15.10;99.90
5870;DHT22;2961;47.702;9.410;2023-05-16T10:08:02;14.90;99.90
5870;DHT22;2961;47.702;9.410;2023-05-16T10:10:30;15.10;99.90
5870;DHT22;2961;47.702;9.410;2023-05-16T10:13:02;15.10;99.90
5870;DHT22;2961;47.702;9.410;2023-05-16T10:15:32;15.10;99.90
5870;DHT22;2961;47.702;9.410;2023-05-16T10:18:01;14.90;99.90
5870;DHT22;2961;47.702;9.410;2023-05-16T10:20:29;14.80;99.90
5870;DHT22;2961;47.702;9.410;2023-05-16T10:22:57;14.60;99.90
5870;DHT22;2961;47.702;9.410;2023-05-16T10:25:27;14.80;99.90
5870;DHT22;2961;47.702;9.410;2023-05-16T10:27:55;15.00;99.90
5870;DHT22;2961;47.702;9.410;2023-05-16T10:30:22;14.90;99.90
5870;DHT22;2961;47.702;9.410;2023-05-16T10:32:51;14.60;99.90
5870;DHT22;2961;47.702;9.410;2023-05-16T10:35:19;14.50;99.90
5870;DHT22;2961;47.702;9.410;2023-05-16T10:37:46;14.60;99.90
5870;DHT22;2961;47.702;9.410;2023-05-16T10:40:14;14.80;99.90
5870;DHT22;2961;47.702;9.410;2023-05-16T10:42:46;14.80;99.90
5870;DHT22;2961;47.702;9.410;2023-05-16T10:45:20;14.80;99.90
5870;DHT22;2961;47.702;9.410;2023-05-16T10:47:53;14.60;99.90
5870;DHT22;2961;47.702;9.410;2023-05-16T10:50:34;14.70;99.90
5870;DHT22;2961;47.702;9.410;2023-05-16T10:53:18;14.70;99.90
5870;DHT22;2961;47.702;9.410;2023-05-16T10:55:50;14.50;99.90
5870;DHT22;2961;47.702;9.410;2023-05-16T10:58:42;14.60;99.90
5870;DHT22;2961;47.702;9.410;2023-05-16T11:01:20;14.60;99.90
5870;DHT22;2961;47.702;9.410;2023-05-16T11:04:07;14.60;99.90
5870;DHT22;2961;47.702;9.410;2023-05-16T11:06:42;14.70;99.90
5870;DHT22;2961;47.702;9.410;2023-05-16T11:09:21;15.00;99.90
5870;DHT22;2961;47.702;9.410;2023-05-16T11:11:57;15.30;99.90
5870;DHT22;2961;47.702;9.410;2023-05-16T11:14:25;15.40;99.90
5870;DHT22;2961;47.702;9.410;2023-05-16T11:16:59;15.30;99.90
5870;DHT22;2961;47.702;9.410;2023-05-16T11:19:33;15.20;99.90
5870;DHT22;2961;47.702;9.410;2023-05-16T11:22:23;15.20;99.90
5870;DHT22;2961;47.702;9.410;2023-05-16T11:24:52;15.00;99.90
5870;DHT22;2961;47.702;9.410;2023-05-16T11:27:21;14.80;99.90
5870;DHT22;2961;47.702;9.410;2023-05-16T11:29:49;14.60;99.90
5870;DHT22;2961;47.702;9.410;2023-05-16T11:32:19;14.40;99.90
5870;DHT22;2961;47.702;9.410;2023-05-16T11:34:48;14.30;99.90
5870;DHT22;2961;47.702;9.410;2023-05-16T11:37:15;14.20;99.90
5870;DHT22;2961;47.702;9.410;2023-05-16T11:39:43;14.00;99.90
5870;DHT22;2961;47.702;9.410;2023-05-16T11:42:09;14.00;99.90
5870;DHT22;2961;47.702;9.410;2023-05-16T11:44:38;13.80;99.90
5870;DHT22;2961;47.702;9.410;2023-05-16T11:47:04;13.70;99.90
5870;DHT22;2961;47.702;9.410;2023-05-16T11:49:31;13.70;99.90
5870;DHT22;2961;47.702;9.410;2023-05-16T11:52:01;13.70;99.90
5870;DHT22;2961;47.702;9.410;2023-05-16T11:54:28;13.70;99.90
5870;DHT22;2961;47.702;9.410;2023-05-16T11:56:56;13.70;99.90
5870;DHT22;2961;47.702;9.410;2023-05-16T11:59:23;13.70;99.90
5870;DHT22;2961;47.702;9.410;2023-05-16T12:01:50;13.80;99.90
5870;DHT22;2961;47.702;9.410;2023-05-16T12:04:18;13.80;99.90
5870;DHT22;2961;47.702;9.410;2023-05-16T12:06:57;13.90;99.90
5870;DHT22;2961;47.702;9.410;2023-05-16T12:09:26;14.10;99.90
5870;DHT22;2961;47.702;9.410;2023-05-16T12:11:53;14.30;99.90
5870;DHT22;2961;47.702;9.410;2023-05-16T12:14:20;14.40;99.90
5870;DHT22;2961;47.702;9.410;2023-05-16T12:16:47;14.40;99.90
5870;DHT22;2961;47.702;9.410;2023-05-16T12:19:14;14.20;99.90
5870;DHT22;2961;47.702;9.410;2023-05-16T12:21:41;14.30;99.90
5870;DHT22;2961;47.702;9.410;2023-05-16T12:24:09;14.30;99.90
5870;DHT22;2961;47.702;9.410;2023-05-16T12:26:39;14.40;99.90
5870;DHT22;2961;47.702;9.410;2023-05-16T12:29:07;14.40;99.90
5870;DHT22;2961;47.702;9.410;2023-05-16T12:31:36;14.50;99.90
5870;DHT22;2961;47.702;9.410;2023-05-16T12:34:03;14.40;99.90
5870;DHT22;2961;47.702;9.410;2023-05-16T12:36:32;14.20;99.90
5870;DHT22;2961;47.702;9.410;2023-05-16T12:38:59;14.10;99.90
5870;DHT22;2961;47.702;9.410;2023-05-16T12:41:29;14.20;99.90
5870;DHT22;2961;47.702;9.410;2023-05-16T12:44:10;14.20;99.90
5870;DHT22;2961;47.702;9.410;2023-05-16T12:46:40;14.30;99.90
5870;DHT22;2961;47.702;9.410;2023-05-16T12:49:07;14.50;99.90
5870;DHT22;2961;47.702;9.410;2023-05-16T12:51:34;14.70;99.90
5870;DHT22;2961;47.702;9.410;2023-05-16T12:54:07;14.70;99.90
5870;DHT22;2961;47.702;9.410;2023-05-16T12:56:34;14.50;99.90
5870;DHT22;2961;47.702;9.410;2023-05-16T12:59:01;14.60;99.90
5870;DHT22;2961;47.702;9.410;2023-05-16T13:01:29;14.60;99.90
5870;DHT22;2961;47.702;9.410;2023-05-16T13:03:56;14.50;99.90
5870;DHT22;2961;47.702;9.410;2023-05-16T13:06:37;14.40;99.90
5870;DHT22;2961;47.702;9.410;2023-05-16T13:09:03;14.40;99.90
5870;DHT22;2961;47.702;9.410;2023-05-16T13:11:30;14.50;99.90
5870;DHT22;2961;47.702;9.410;2023-05-16T13:13:57;14.40;99.90
5870;DHT22;2961;47.702;9.410;2023-05-16T13:16:24;14.40;99.90
5870;DHT22;2961;47.702;9.410;2023-05-16T13:18:52;14.30;99.90
5870;DHT22;2961;47.702;9.410;2023-05-16T13:21:18;14.20;99.90
5870;DHT22;2961;47.702;9.410;2023-05-16T13:23:46;14.00;99.90
5870;DHT22;2961;47.702;9.410;2023-05-16T13:26:13;14.10;99.90
5870;DHT22;2961;47.702;9.410;2023-05-16T13:28:40;14.00;99.90
5870;DHT22;2961;47.702;9.410;2023-05-16T13:31:07;13.80;99.90
5870;DHT22;2961;47.702;9.410;2023-05-16T13:33:34;13.70;99.90
5870;DHT22;2961;47.702;9.410;2023-05-16T13:36:03;13.60;99.90
5870;DHT22;2961;47.702;9.410;2023-05-16T13:38:30;13.50;99.90
5870;DHT22;2961;47.702;9.410;2023-05-16T13:40:57;13.30;99.90
5870;DHT22;2961;47.702;9.410;2023-05-16T13:43:24;13.20;99.90
5870;DHT22;2961;47.702;9.410;2023-05-16T13:45:51;13.10;99.90
5870;DHT22;2961;47.702;9.410;2023-05-16T13:48:18;13.10;99.90
5870;DHT22;2961;47.702;9.410;2023-05-16T13:50:45;13.00;99.90
5870;DHT22;2961;47.702;9.410;2023-05-16T13:53:13;13.00;99.90
5870;DHT22;2961;47.702;9.410;2023-05-16T13:55:40;13.00;99.90
5870;DHT22;2961;47.702;9.410;2023-05-16T13:58:07;13.00;99.90
5870;DHT22;2961;47.702;9.410;2023-05-16T14:00:34;13.10;99.90
5870;DHT22;2961;47.702;9.410;2023-05-16T14:03:00;13.10;99.90
5870;DHT22;2961;47.702;9.410;2023-05-16T14:05:27;13.10;99.90
5870;DHT22;2961;47.702;9.410;2023-05-16T14:07:54;12.90;99.90
5870;DHT22;2961;47.702;9.410;2023-05-16T14:10:22;12.80;99.90
5870;DHT22;2961;47.702;9.410;2023-05-16T14:12:49;12.80;99.90
5870;DHT22;2961;47.702;9.410;2023-05-16T14:15:16;12.80;99.90
5870;DHT22;2961;47.702;9.410;2023-05-16T14:17:43;12.70;99.90
5870;DHT22;2961;47.702;9.410;2023-05-16T14:20:11;12.70;99.90
5870;DHT22;2961;47.702;9.410;2023-05-16T14:22:42;12.70;99.90
5870;DHT22;2961;47.702;9.410;2023-05-16T14:25:09;12.70;99.90
5870;DHT22;2961;47.702;9.410;2023-05-16T14:27:37;12.80;99.90
5870;DHT22;2961;47.702;9.410;2023-05-16T14:30:05;12.90;99.90
5870;DHT22;2961;47.702;9.410;2023-05-16T14:32:32;12.90;99.90
5870;DHT22;2961;47.702;9.410;2023-05-16T14:34:59;12.80;99.90
5870;DHT22;2961;47.702;9.410;2023-05-16T14:37:26;12.70;99.90
5870;DHT22;2961;47.702;9.410;2023-05-16T14:39:52;12.60;99.90
5870;DHT22;2961;47.702;9.410;2023-05-16T14:42:19;12.60;99.90
5870;DHT22;2961;47.702;9.410;2023-05-16T14:44:47;12.50;99.90
5870;DHT22;2961;47.702;9.410;2023-05-16T14:47:14;12.50;99.90
5870;DHT22;2961;47.702;9.410;2023-05-16T14:49:41;12.60;99.90
5870;DHT22;2961;47.702;9.410;2023-05-16T14:52:08;12.70;99.90
5870;DHT22;2961;47.702;9.410;2023-05-16T14:54:35;12.70;99.90
5870;DHT22;2961;47.702;9.410;2023-05-16T14:57:02;12.70;99.90
5870;DHT22;2961;47.702;9.410;2023-05-16T14:59:29;12.60;99.90
5870;DHT22;2961;47.702;9.410;2023-05-16T15:01:57;12.50;99.90
5870;DHT22;2961;47.702;9.410;2023-05-16T15:04:26;12.50;99.90
5870;DHT22;2961;47.702;9.410;2023-05-16T15:06:53;12.60;99.90
5870;DHT22;2961;47.702;9.410;2023-05-16T15:09:19;12.70;99.90
5870;DHT22;2961;47.702;9.410;2023-05-16T15:11:46;12.70;99.90
5870;DHT22;2961;47.702;9.410;2023-05-16T15:14:13;12.70;99.90
5870;DHT22;2961;47.702;9.410;2023-05-16T15:16:40;12.70;99.90
5870;DHT22;2961;47.702;9.410;2023-05-16T15:19:08;12.70;99.90
5870;DHT22;2961;47.702;9.410;2023-05-16T15:21:35;12.70;99.90
5870;DHT22;2961;47.702;9.410;2023-05-16T15:24:02;12.80;99.90
5870;DHT22;2961;47.702;9.410;2023-05-16T15:26:29;12.90;99.90
5870;DHT22;2961;47.702;9.410;2023-05-16T15:28:55;12.90;99.90
5870;DHT22;2961;47.702;9.410;2023-05-16T15:31:22;12.80;99.90
5870;DHT22;2961;47.702;9.410;2023-05-16T15:33:49;12.80;99.90
5870;DHT22;2961;47.702;9.410;2023-05-16T15:36:17;12.80;99.90
5870;DHT22;2961;47.702;9.410;2023-05-16T15:38:44;12.80;99.90
5870;DHT22;2961;47.702;9.410;2023-05-16T15:41:11;12.80;99.90
5870;DHT22;2961;47.702;9.410;2023-05-16T15:43:40;12.80;99.90
5870;DHT22;2961;47.702;9.410;2023-05-16T15:46:08;12.70;99.90
5870;DHT22;2961;47.702;9.410;2023-05-16T15:48:36;12.60;99.90
5870;DHT22;2961;47.702;9.410;2023-05-16T15:51:02;12.60;99.90
5870;DHT22;2961;47.702;9.410;2023-05-16T15:53:31;12.50;99.90
5870;DHT22;2961;47.702;9.410;2023-05-16T15:55:57;12.50;99.90
5870;DHT22;2961;47.702;9.410;2023-05-16T15:58:24;12.50;99.90
5870;DHT22;2961;47.702;9.410;2023-05-16T16:00:51;12.50;99.90
5870;DHT22;2961;47.702;9.410;2023-05-16T16:03:19;12.60;99.90
5870;DHT22;2961;47.702;9.410;2023-05-16T16:05:46;12.60;99.90
5870;DHT22;2961;47.702;9.410;2023-05-16T16:08:13;12.70;99.90
5870;DHT22;2961;47.702;9.410;2023-05-16T16:10:41;12.70;99.90